Time,TemperatureF,DewpointF,PressureIn,WindDirection,WindDirectionDegrees,WindSpeedMPH,WindSpeedGustMPH,Humidity,HourlyPrecipIn,Conditions,Clouds,dailyrainin,SoftwareType,DateUTC
2013-11-16 00:00:00,60.2,55.0,30.16,NW,319,0.0,-999.0,83,-99.99,,,0.00,weatherlink.com 1.10,2013-11-16 05:00:00,
2013-11-16 00:15:00,60.4,55.0,30.15,NW,319,0.0,-999.0,83,-99.99,,,0.00,weatherlink.com 1.10,2013-11-16 05:15:00,
2013-11-16 00:30:00,60.5,55.0,30.16,NW,319,0.0,-999.0,83,-99.99,,,0.00,weatherlink.com 1.10,2013-11-16 05:30:00,
2013-11-16 00:45:00,60.5,55.0,30.16,NW,319,0.0,-999.0,83,-99.99,,,0.00,weatherlink.com 1.10,2013-11-16 05:45:00,
2013-11-16 01:00:00,60.5,55.0,30.16,NW,319,0.0,-999.0,83,-99.99,,,0.00,weatherlink.com 1.10,2013-11-16 06:00:00,
2013-11-16 01:15:00,60.4,55.0,30.15,NW,319,0.0,-999.0,83,-99.99,,,0.00,weatherlink.com 1.10,2013-11-16 06:15:00,
2013-11-16 01:30:00,60.5,56.0,30.15,NW,319,0.0,-999.0,84,-99.99,,,0.00,weatherlink.com 1.10,2013-11-16 06:30:00,
2013-11-16 01:45:00,60.5,56.0,30.15,NW,319,0.0,-999.0,84,-99.99,,,0.00,weatherlink.com 1.10,2013-11-16 06:45:00,
2013-11-16 02:00:00,60.5,56.0,30.15,NW,319,0.0,-999.0,84,-99.99,,,0.00,weatherlink.com 1.10,2013-11-16 07:00:00,
2013-11-16 02:15:00,60.4,56.0,30.15,NW,319,0.0,-999.0,84,-99.99,,,0.00,weatherlink.com 1.10,2013-11-16 07:15:00,
2013-11-16 02:30:00,60.5,56.0,30.16,NW,319,0.0,-999.0,84,-99.99,,,0.01,weatherlink.com 1.10,2013-11-16 07:30:00,
2013-11-16 02:45:00,60.5,56.0,30.16,NW,319,0.0,-999.0,84,-99.99,,,0.01,weatherlink.com 1.10,2013-11-16 07:45:00,
2013-11-16 03:00:00,60.5,56.0,30.16,NW,319,0.0,-999.0,84,-99.99,,,0.01,weatherlink.com 1.10,2013-11-16 08:00:00,
2013-11-16 03:15:00,60.5,56.0,30.15,NW,319,0.0,-999.0,84,-99.99,,,0.02,weatherlink.com 1.10,2013-11-16 08:15:00,
2013-11-16 03:30:00,60.4,56.0,30.14,NW,319,0.0,-999.0,84,-99.99,,,0.02,weatherlink.com 1.10,2013-11-16 08:30:00,
2013-11-16 03:45:00,60.7,56.0,30.14,NW,319,0.0,-999.0,85,-99.99,,,0.02,weatherlink.com 1.10,2013-11-16 08:45:00,
2013-11-16 04:00:00,60.9,56.0,30.15,NW,319,0.0,-999.0,84,-99.99,,,0.02,weatherlink.com 1.10,2013-11-16 09:00:00,
2013-11-16 04:15:00,60.7,56.0,30.15,NW,319,0.0,-999.0,85,-99.99,,,0.02,weatherlink.com 1.10,2013-11-16 09:15:00,
2013-11-16 04:30:00,60.9,56.0,30.14,NW,319,0.0,-999.0,85,-99.99,,,0.02,weatherlink.com 1.10,2013-11-16 09:30:00,
2013-11-16 04:45:00,60.9,56.0,30.14,NW,319,0.0,-999.0,85,-99.99,,,0.02,weatherlink.com 1.10,2013-11-16 09:45:00,
2013-11-16 05:00:00,60.9,56.0,30.14,NW,319,0.0,-999.0,85,-99.99,,,0.02,weatherlink.com 1.10,2013-11-16 10:00:00,
2013-11-16 05:15:00,60.9,56.0,30.15,NW,319,0.0,-999.0,85,-99.99,,,0.02,weatherlink.com 1.10,2013-11-16 10:15:00,
2013-11-16 05:30:00,60.9,56.0,30.15,NW,319,0.0,-999.0,85,-99.99,,,0.02,weatherlink.com 1.10,2013-11-16 10:30:00,
2013-11-16 05:45:00,60.7,56.0,30.16,NW,319,0.0,-999.0,85,-99.99,,,0.02,weatherlink.com 1.10,2013-11-16 10:45:00,
2013-11-16 06:00:00,60.7,56.0,30.16,NW,319,0.0,-999.0,85,-99.99,,,0.02,weatherlink.com 1.10,2013-11-16 11:00:00,
2013-11-16 06:15:00,60.7,56.0,30.16,NW,319,0.0,-999.0,85,-99.99,,,0.02,weatherlink.com 1.10,2013-11-16 11:15:00,
2013-11-16 06:30:00,60.9,56.0,30.17,NW,319,0.0,-999.0,85,-99.99,,,0.02,weatherlink.com 1.10,2013-11-16 11:30:00,
2013-11-16 06:45:00,60.9,56.0,30.17,NW,319,0.0,-999.0,85,-99.99,,,0.02,weatherlink.com 1.10,2013-11-16 11:45:00,
2013-11-16 07:00:00,60.9,56.0,30.17,NW,319,0.0,-999.0,85,-99.99,,,0.02,weatherlink.com 1.10,2013-11-16 12:00:00,
2013-11-16 07:15:00,60.7,56.0,30.17,NW,319,0.0,-999.0,85,-99.99,,,0.02,weatherlink.com 1.10,2013-11-16 12:15:00,
2013-11-16 07:30:00,60.7,56.0,30.18,NW,319,0.0,-999.0,85,-99.99,,,0.03,weatherlink.com 1.10,2013-11-16 12:30:00,
2013-11-16 07:45:00,61.0,57.0,30.18,NW,319,0.0,-999.0,85,-99.99,,,0.03,weatherlink.com 1.10,2013-11-16 12:45:00,
2013-11-16 08:00:00,61.5,57.0,30.18,NW,319,0.0,-999.0,86,-99.99,,,0.03,weatherlink.com 1.10,2013-11-16 13:00:00,
2013-11-16 08:15:00,61.8,58.0,30.18,NW,319,0.0,-999.0,86,-99.99,,,0.03,weatherlink.com 1.10,2013-11-16 13:15:00,
2013-11-16 08:30:00,62.1,58.0,30.19,NW,319,0.0,-999.0,86,-99.99,,,0.03,weatherlink.com 1.10,2013-11-16 13:30:00,
2013-11-16 08:45:00,62.7,59.0,30.19,NW,319,0.0,-999.0,86,-99.99,,,0.03,weatherlink.com 1.10,2013-11-16 13:45:00,
2013-11-16 09:00:00,63.2,59.0,30.20,NW,319,0.0,-999.0,86,-99.99,,,0.03,weatherlink.com 1.10,2013-11-16 14:00:00,
2013-11-16 09:15:00,63.9,60.0,30.19,NW,319,0.0,-999.0,86,-99.99,,,0.03,weatherlink.com 1.10,2013-11-16 14:15:00,
2013-11-16 09:30:00,64.3,60.0,30.20,NW,319,0.0,-999.0,86,-99.99,,,0.03,weatherlink.com 1.10,2013-11-16 14:30:00,
2013-11-16 09:45:00,65.3,61.0,30.20,NW,318,0.0,-999.0,86,-99.99,,,0.03,weatherlink.com 1.10,2013-11-16 14:45:00,
2013-11-16 10:00:00,66.4,62.0,30.20,NW,316,0.0,-999.0,85,-99.99,,,0.03,weatherlink.com 1.10,2013-11-16 15:00:00,
2013-11-16 10:15:00,67.3,62.0,30.20,NW,306,0.0,-999.0,83,-99.99,,,0.03,weatherlink.com 1.10,2013-11-16 15:15:00,
2013-11-16 10:30:00,68.3,62.0,30.20,WNW,302,0.0,-999.0,80,-99.99,,,0.03,weatherlink.com 1.10,2013-11-16 15:30:00,
2013-11-16 10:45:00,69.1,62.0,30.20,WNW,289,0.0,-999.0,77,-99.99,,,0.03,weatherlink.com 1.10,2013-11-16 15:45:00,
2013-11-16 11:00:00,70.4,62.0,30.20,SSW,195,0.0,-999.0,74,-99.99,,,0.03,weatherlink.com 1.10,2013-11-16 16:00:00,
2013-11-16 11:15:00,71.6,61.0,30.20,SSW,195,0.0,-999.0,70,-99.99,,,0.03,weatherlink.com 1.10,2013-11-16 16:15:00,
2013-11-16 11:30:00,72.0,60.0,30.19,West,268,0.0,-999.0,66,-99.99,,,0.03,weatherlink.com 1.10,2013-11-16 16:30:00,
2013-11-16 11:45:00,72.1,59.0,30.19,SW,224,0.0,-999.0,64,-99.99,,,0.03,weatherlink.com 1.10,2013-11-16 16:45:00,
2013-11-16 12:00:00,73.2,59.0,30.18,West,267,0.0,-999.0,62,-99.99,,,0.03,weatherlink.com 1.10,2013-11-16 17:00:00,
2013-11-16 12:15:00,73.9,59.0,30.18,WSW,253,1.0,-999.0,60,-99.99,,,0.03,weatherlink.com 1.10,2013-11-16 17:15:00,
2013-11-16 12:30:00,75.4,59.0,30.17,SSE,154,0.0,-999.0,58,-99.99,,,0.03,weatherlink.com 1.10,2013-11-16 17:30:00,
2013-11-16 12:45:00,76.5,60.0,30.17,WSW,249,1.0,-999.0,56,-99.99,,,0.03,weatherlink.com 1.10,2013-11-16 17:45:00,
2013-11-16 13:01:00,78.1,59.0,30.16,South,189,0.0,-999.0,53,-99.99,,,0.03,weatherlink.com 1.10,2013-11-16 18:01:00,
2013-11-16 13:16:00,78.3,58.0,30.15,SW,230,0.0,-999.0,50,-99.99,,,0.03,weatherlink.com 1.10,2013-11-16 18:16:00,
2013-11-16 13:31:00,78.8,58.0,30.15,WSW,239,0.0,-999.0,49,-99.99,,,0.03,weatherlink.com 1.10,2013-11-16 18:31:00,
2013-11-16 13:46:00,79.6,58.0,30.15,SSE,164,0.0,-999.0,48,-99.99,,,0.03,weatherlink.com 1.10,2013-11-16 18:46:00,
2013-11-16 14:01:00,80.1,58.0,30.15,West,266,0.0,-999.0,47,-99.99,,,0.03,weatherlink.com 1.10,2013-11-16 19:01:00,
2013-11-16 14:16:00,80.9,58.0,30.15,WSW,251,0.0,-999.0,45,-99.99,,,0.03,weatherlink.com 1.10,2013-11-16 19:16:00,
2013-11-16 14:31:00,81.4,57.0,30.14,SW,216,0.0,-999.0,44,-99.99,,,0.03,weatherlink.com 1.10,2013-11-16 19:31:00,
2013-11-16 14:46:00,81.6,56.0,30.14,SW,232,1.0,-999.0,42,-99.99,,,0.03,weatherlink.com 1.10,2013-11-16 19:46:00,
2013-11-16 15:01:00,81.4,56.0,30.14,NW,320,0.0,-999.0,42,-99.99,,,0.03,weatherlink.com 1.10,2013-11-16 20:01:00,
2013-11-16 15:16:00,81.1,56.0,30.14,NW,308,1.0,-999.0,42,-99.99,,,0.03,weatherlink.com 1.10,2013-11-16 20:16:00,
2013-11-16 15:31:00,81.2,55.0,30.14,NW,308,0.0,-999.0,41,-99.99,,,0.03,weatherlink.com 1.10,2013-11-16 20:31:00,
2013-11-16 15:46:00,81.4,55.0,30.14,NW,307,0.0,-999.0,41,-99.99,,,0.03,weatherlink.com 1.10,2013-11-16 20:46:00,
2013-11-16 16:01:00,81.4,55.0,30.14,NW,307,0.0,-999.0,41,-99.99,,,0.03,weatherlink.com 1.10,2013-11-16 21:01:00,
2013-11-16 16:16:00,80.7,55.0,30.14,NW,307,0.0,-999.0,41,-99.99,,,0.03,weatherlink.com 1.10,2013-11-16 21:16:00,
2013-11-16 16:31:00,79.6,54.0,30.14,NW,307,0.0,-999.0,42,-99.99,,,0.03,weatherlink.com 1.10,2013-11-16 21:31:00,
2013-11-16 16:46:00,77.2,54.0,30.14,NW,307,0.0,-999.0,45,-99.99,,,0.03,weatherlink.com 1.10,2013-11-16 21:46:00,
2013-11-16 17:01:00,74.6,54.0,30.14,NW,307,0.0,-999.0,49,-99.99,,,0.03,weatherlink.com 1.10,2013-11-16 22:01:00,
2013-11-16 17:16:00,72.7,54.0,30.14,NW,307,0.0,-999.0,52,-99.99,,,0.03,weatherlink.com 1.10,2013-11-16 22:16:00,
2013-11-16 17:31:00,70.9,54.0,30.14,NW,307,0.0,-999.0,55,-99.99,,,0.03,weatherlink.com 1.10,2013-11-16 22:31:00,
2013-11-16 17:46:00,69.9,54.0,30.14,NW,307,0.0,-999.0,57,-99.99,,,0.03,weatherlink.com 1.10,2013-11-16 22:46:00,
2013-11-16 18:01:00,68.6,53.0,30.14,NW,307,0.0,-999.0,58,-99.99,,,0.03,weatherlink.com 1.10,2013-11-16 23:01:00,
2013-11-16 18:16:00,67.6,53.0,30.14,NW,307,0.0,-999.0,60,-99.99,,,0.03,weatherlink.com 1.10,2013-11-16 23:16:00,
2013-11-16 18:31:00,66.6,53.0,30.14,NW,307,0.0,-999.0,61,-99.99,,,0.03,weatherlink.com 1.10,2013-11-16 23:31:00,
2013-11-16 18:46:00,66.0,53.0,30.14,NW,307,0.0,-999.0,63,-99.99,,,0.03,weatherlink.com 1.10,2013-11-16 23:46:00,
2013-11-16 19:01:00,65.6,53.0,30.15,NW,307,0.0,-999.0,63,-99.99,,,0.03,weatherlink.com 1.10,2013-11-17 00:01:00,
2013-11-16 19:16:00,65.2,53.0,30.15,NW,307,0.0,-999.0,64,-99.99,,,0.03,weatherlink.com 1.10,2013-11-17 00:16:00,
2013-11-16 19:31:00,65.0,53.0,30.16,NW,307,0.0,-999.0,65,-99.99,,,0.03,weatherlink.com 1.10,2013-11-17 00:31:00,
2013-11-16 19:46:00,64.8,54.0,30.17,NW,307,0.0,-999.0,67,-99.99,,,0.03,weatherlink.com 1.10,2013-11-17 00:46:00,
2013-11-16 20:01:00,64.7,54.0,30.16,NW,307,0.0,-999.0,69,-99.99,,,0.03,weatherlink.com 1.10,2013-11-17 01:01:00,
2013-11-16 20:16:00,64.7,55.0,30.17,NW,307,0.0,-999.0,70,-99.99,,,0.03,weatherlink.com 1.10,2013-11-17 01:16:00,
2013-11-16 20:31:00,64.5,55.0,30.17,NW,307,0.0,-999.0,71,-99.99,,,0.03,weatherlink.com 1.10,2013-11-17 01:31:00,
2013-11-16 20:46:00,64.3,55.0,30.17,NW,307,0.0,-999.0,72,-99.99,,,0.03,weatherlink.com 1.10,2013-11-17 01:46:00,
2013-11-16 21:01:00,64.5,56.0,30.17,NW,307,0.0,-999.0,73,-99.99,,,0.03,weatherlink.com 1.10,2013-11-17 02:01:00,
2013-11-16 21:16:00,64.3,55.0,30.17,NW,307,0.0,-999.0,73,-99.99,,,0.03,weatherlink.com 1.10,2013-11-17 02:16:00,
2013-11-16 21:31:00,64.2,55.0,30.17,NW,307,0.0,-999.0,73,-99.99,,,0.03,weatherlink.com 1.10,2013-11-17 02:31:00,
2013-11-16 21:46:00,63.7,55.0,30.18,NW,307,0.0,-999.0,73,-99.99,,,0.03,weatherlink.com 1.10,2013-11-17 02:46:00,
2013-11-16 22:01:00,63.1,54.0,30.18,NW,307,0.0,-999.0,73,-99.99,,,0.03,weatherlink.com 1.10,2013-11-17 03:01:00,
2013-11-16 22:16:00,62.6,54.0,30.17,NW,307,0.0,-999.0,74,-99.99,,,0.03,weatherlink.com 1.10,2013-11-17 03:16:00,
2013-11-16 22:31:00,62.4,54.0,30.17,NW,307,0.0,-999.0,74,-99.99,,,0.03,weatherlink.com 1.10,2013-11-17 03:31:00,
2013-11-16 22:46:00,62.3,54.0,30.17,NW,307,0.0,-999.0,74,-99.99,,,0.03,weatherlink.com 1.10,2013-11-17 03:46:00,
2013-11-16 23:01:00,62.3,54.0,30.17,NW,307,0.0,-999.0,75,-99.99,,,0.00,weatherlink.com 1.10,2013-11-17 04:01:00,
2013-11-16 23:16:00,62.3,55.0,30.17,NW,307,0.0,-999.0,76,-99.99,,,0.00,weatherlink.com 1.10,2013-11-17 04:16:00,
2013-11-16 23:31:00,62.3,55.0,30.17,NW,307,0.0,-999.0,76,-99.99,,,0.00,weatherlink.com 1.10,2013-11-17 04:31:00,
2013-11-16 23:46:00,62.3,55.0,30.17,NW,307,0.0,-999.0,77,-99.99,,,0.00,weatherlink.com 1.10,2013-11-17 04:46:00,